sensor_id;sensor_type;location;lat;lon;timestamp;P1;durP1;ratioP1;P2;durP2;ratioP2
14088;SDS011;7120;52.890;6.040;2022-07-23T00:00:57;19.50;;;10.63;;
14088;SDS011;7120;52.890;6.040;2022-07-23T00:03:23;15.37;;;10.63;;
14088;SDS011;7120;52.890;6.040;2022-07-23T00:05:48;19.77;;;12.50;;
14088;SDS011;7120;52.890;6.040;2022-07-23T00:08:14;19.33;;;10.97;;
14088;SDS011;7120;52.890;6.040;2022-07-23T00:10:39;24.47;;;12.87;;
14088;SDS011;7120;52.890;6.040;2022-07-23T00:13:04;21.57;;;11.67;;
14088;SDS011;7120;52.890;6.040;2022-07-23T00:15:30;20.53;;;10.90;;
14088;SDS011;7120;52.890;6.040;2022-07-23T00:17:55;18.27;;;11.77;;
14088;SDS011;7120;52.890;6.040;2022-07-23T00:20:20;22.27;;;12.17;;
14088;SDS011;7120;52.890;6.040;2022-07-23T00:22:50;23.00;;;12.90;;
14088;SDS011;7120;52.890;6.040;2022-07-23T00:25:16;22.97;;;12.33;;
14088;SDS011;7120;52.890;6.040;2022-07-23T00:27:41;18.00;;;12.03;;
14088;SDS011;7120;52.890;6.040;2022-07-23T00:30:07;19.63;;;11.57;;
14088;SDS011;7120;52.890;6.040;2022-07-23T00:32:44;22.63;;;12.43;;
14088;SDS011;7120;52.890;6.040;2022-07-23T00:35:10;18.80;;;11.03;;
14088;SDS011;7120;52.890;6.040;2022-07-23T00:37:36;20.57;;;11.40;;
14088;SDS011;7120;52.890;6.040;2022-07-23T00:40:01;20.50;;;12.63;;
14088;SDS011;7120;52.890;6.040;2022-07-23T00:42:27;19.73;;;12.03;;
14088;SDS011;7120;52.890;6.040;2022-07-23T00:44:52;22.10;;;12.53;;
14088;SDS011;7120;52.890;6.040;2022-07-23T00:47:17;19.30;;;12.47;;
14088;SDS011;7120;52.890;6.040;2022-07-23T00:49:42;24.20;;;12.30;;
14088;SDS011;7120;52.890;6.040;2022-07-23T00:52:09;22.77;;;11.70;;
14088;SDS011;7120;52.890;6.040;2022-07-23T00:54:34;22.17;;;11.90;;
14088;SDS011;7120;52.890;6.040;2022-07-23T00:57:00;20.70;;;10.60;;
14088;SDS011;7120;52.890;6.040;2022-07-23T00:59:25;20.40;;;11.63;;
14088;SDS011;7120;52.890;6.040;2022-07-23T01:01:50;22.50;;;11.97;;
14088;SDS011;7120;52.890;6.040;2022-07-23T01:04:16;22.77;;;13.00;;
14088;SDS011;7120;52.890;6.040;2022-07-23T01:06:41;35.63;;;14.17;;
14088;SDS011;7120;52.890;6.040;2022-07-23T01:09:08;24.83;;;12.27;;
14088;SDS011;7120;52.890;6.040;2022-07-23T01:11:34;22.70;;;11.87;;
14088;SDS011;7120;52.890;6.040;2022-07-23T01:14:17;21.97;;;12.13;;
14088;SDS011;7120;52.890;6.040;2022-07-23T01:16:44;22.60;;;11.80;;
14088;SDS011;7120;52.890;6.040;2022-07-23T01:19:11;22.47;;;11.50;;
14088;SDS011;7120;52.890;6.040;2022-07-23T01:21:39;19.67;;;11.73;;
14088;SDS011;7120;52.890;6.040;2022-07-23T01:24:06;21.10;;;11.33;;
14088;SDS011;7120;52.890;6.040;2022-07-23T01:26:33;25.83;;;12.30;;
14088;SDS011;7120;52.890;6.040;2022-07-23T01:28:59;21.93;;;12.03;;
14088;SDS011;7120;52.890;6.040;2022-07-23T01:31:25;23.50;;;11.93;;
14088;SDS011;7120;52.890;6.040;2022-07-23T01:33:51;21.97;;;11.93;;
14088;SDS011;7120;52.890;6.040;2022-07-23T01:36:16;23.10;;;11.93;;
14088;SDS011;7120;52.890;6.040;2022-07-23T01:38:41;21.40;;;11.20;;
14088;SDS011;7120;52.890;6.040;2022-07-23T01:41:07;19.70;;;11.13;;
14088;SDS011;7120;52.890;6.040;2022-07-23T01:43:32;17.50;;;10.40;;
14088;SDS011;7120;52.890;6.040;2022-07-23T01:45:57;20.80;;;11.10;;
14088;SDS011;7120;52.890;6.040;2022-07-23T01:48:22;22.50;;;11.57;;
14088;SDS011;7120;52.890;6.040;2022-07-23T01:50:48;23.93;;;11.83;;
14088;SDS011;7120;52.890;6.040;2022-07-23T01:53:14;17.87;;;10.70;;
14088;SDS011;7120;52.890;6.040;2022-07-23T01:55:39;21.60;;;11.60;;
14088;SDS011;7120;52.890;6.040;2022-07-23T01:58:04;18.10;;;10.13;;
14088;SDS011;7120;52.890;6.040;2022-07-23T02:00:30;17.77;;;10.57;;
14088;SDS011;7120;52.890;6.040;2022-07-23T02:02:56;21.23;;;10.83;;
14088;SDS011;7120;52.890;6.040;2022-07-23T02:05:23;19.47;;;10.93;;
14088;SDS011;7120;52.890;6.040;2022-07-23T02:07:48;22.37;;;11.77;;
14088;SDS011;7120;52.890;6.040;2022-07-23T02:10:14;21.13;;;11.70;;
14088;SDS011;7120;52.890;6.040;2022-07-23T02:12:39;24.40;;;12.40;;
14088;SDS011;7120;52.890;6.040;2022-07-23T02:15:05;20.83;;;11.70;;
14088;SDS011;7120;52.890;6.040;2022-07-23T02:17:31;24.27;;;12.60;;
14088;SDS011;7120;52.890;6.040;2022-07-23T02:19:56;22.57;;;10.77;;
14088;SDS011;7120;52.890;6.040;2022-07-23T02:22:21;19.33;;;10.87;;
14088;SDS011;7120;52.890;6.040;2022-07-23T02:24:47;23.27;;;10.97;;
14088;SDS011;7120;52.890;6.040;2022-07-23T02:27:12;24.73;;;11.87;;
14088;SDS011;7120;52.890;6.040;2022-07-23T02:29:37;25.07;;;11.13;;
14088;SDS011;7120;52.890;6.040;2022-07-23T02:32:03;21.50;;;10.17;;
14088;SDS011;7120;52.890;6.040;2022-07-23T02:34:28;17.93;;;10.23;;
14088;SDS011;7120;52.890;6.040;2022-07-23T02:36:54;15.90;;;8.63;;
14088;SDS011;7120;52.890;6.040;2022-07-23T02:39:19;18.00;;;7.90;;
14088;SDS011;7120;52.890;6.040;2022-07-23T02:41:44;15.57;;;7.47;;
14088;SDS011;7120;52.890;6.040;2022-07-23T02:44:10;12.23;;;6.73;;
14088;SDS011;7120;52.890;6.040;2022-07-23T02:46:35;14.27;;;6.30;;
14088;SDS011;7120;52.890;6.040;2022-07-23T02:49:00;17.13;;;6.33;;
14088;SDS011;7120;52.890;6.040;2022-07-23T02:51:26;13.17;;;6.40;;
14088;SDS011;7120;52.890;6.040;2022-07-23T02:53:52;11.70;;;6.23;;
14088;SDS011;7120;52.890;6.040;2022-07-23T02:56:17;10.87;;;6.07;;
14088;SDS011;7120;52.890;6.040;2022-07-23T02:58:42;10.93;;;5.67;;
14088;SDS011;7120;52.890;6.040;2022-07-23T03:01:08;13.47;;;7.03;;
14088;SDS011;7120;52.890;6.040;2022-07-23T03:03:33;9.90;;;7.03;;
14088;SDS011;7120;52.890;6.040;2022-07-23T03:05:58;20.00;;;9.83;;
14088;SDS011;7120;52.890;6.040;2022-07-23T03:08:24;15.57;;;8.73;;
14088;SDS011;7120;52.890;6.040;2022-07-23T03:10:49;15.87;;;9.53;;
14088;SDS011;7120;52.890;6.040;2022-07-23T03:13:15;17.60;;;9.43;;
14088;SDS011;7120;52.890;6.040;2022-07-23T03:15:40;19.23;;;9.60;;
14088;SDS011;7120;52.890;6.040;2022-07-23T03:18:05;16.97;;;9.77;;
14088;SDS011;7120;52.890;6.040;2022-07-23T03:20:31;17.13;;;9.03;;
14088;SDS011;7120;52.890;6.040;2022-07-23T03:22:56;15.30;;;9.77;;
14088;SDS011;7120;52.890;6.040;2022-07-23T03:25:22;17.57;;;10.00;;
14088;SDS011;7120;52.890;6.040;2022-07-23T03:27:47;19.63;;;9.50;;
14088;SDS011;7120;52.890;6.040;2022-07-23T03:30:12;19.60;;;9.90;;
14088;SDS011;7120;52.890;6.040;2022-07-23T03:32:38;21.00;;;10.57;;
14088;SDS011;7120;52.890;6.040;2022-07-23T03:35:04;21.37;;;10.60;;
14088;SDS011;7120;52.890;6.040;2022-07-23T03:37:30;21.57;;;10.07;;
14088;SDS011;7120;52.890;6.040;2022-07-23T03:39:55;18.37;;;10.13;;
14088;SDS011;7120;52.890;6.040;2022-07-23T03:42:20;24.97;;;11.37;;
14088;SDS011;7120;52.890;6.040;2022-07-23T03:44:46;23.90;;;10.73;;
14088;SDS011;7120;52.890;6.040;2022-07-23T03:47:11;24.47;;;12.97;;
14088;SDS011;7120;52.890;6.040;2022-07-23T03:49:37;22.67;;;10.87;;
14088;SDS011;7120;52.890;6.040;2022-07-23T03:52:02;23.27;;;10.87;;
14088;SDS011;7120;52.890;6.040;2022-07-23T03:54:28;21.63;;;10.20;;
14088;SDS011;7120;52.890;6.040;2022-07-23T03:56:53;20.50;;;10.57;;
14088;SDS011;7120;52.890;6.040;2022-07-23T03:59:18;19.73;;;10.47;;
14088;SDS011;7120;52.890;6.040;2022-07-23T04:01:44;19.90;;;9.87;;
14088;SDS011;7120;52.890;6.040;2022-07-23T04:04:09;17.77;;;9.10;;
14088;SDS011;7120;52.890;6.040;2022-07-23T04:06:35;20.20;;;9.73;;
14088;SDS011;7120;52.890;6.040;2022-07-23T04:09:00;20.80;;;10.70;;
14088;SDS011;7120;52.890;6.040;2022-07-23T04:11:26;18.67;;;10.13;;
14088;SDS011;7120;52.890;6.040;2022-07-23T04:13:51;18.90;;;10.20;;
14088;SDS011;7120;52.890;6.040;2022-07-23T04:16:17;17.83;;;10.97;;
14088;SDS011;7120;52.890;6.040;2022-07-23T04:18:42;21.00;;;10.80;;
14088;SDS011;7120;52.890;6.040;2022-07-23T04:21:07;16.03;;;9.90;;
14088;SDS011;7120;52.890;6.040;2022-07-23T04:23:34;19.50;;;10.67;;
14088;SDS011;7120;52.890;6.040;2022-07-23T04:25:59;24.97;;;11.43;;
14088;SDS011;7120;52.890;6.040;2022-07-23T04:28:25;22.53;;;11.87;;
14088;SDS011;7120;52.890;6.040;2022-07-23T04:30:50;22.07;;;12.00;;
14088;SDS011;7120;52.890;6.040;2022-07-23T04:33:15;24.30;;;12.27;;
14088;SDS011;7120;52.890;6.040;2022-07-23T04:35:41;19.97;;;11.10;;
14088;SDS011;7120;52.890;6.040;2022-07-23T04:38:06;21.70;;;12.20;;
14088;SDS011;7120;52.890;6.040;2022-07-23T04:40:31;20.67;;;11.10;;
14088;SDS011;7120;52.890;6.040;2022-07-23T04:42:57;20.30;;;11.27;;
14088;SDS011;7120;52.890;6.040;2022-07-23T04:45:22;19.73;;;11.10;;
14088;SDS011;7120;52.890;6.040;2022-07-23T04:47:49;17.77;;;10.77;;
14088;SDS011;7120;52.890;6.040;2022-07-23T04:50:15;16.10;;;10.53;;
14088;SDS011;7120;52.890;6.040;2022-07-23T04:52:44;19.07;;;10.10;;
14088;SDS011;7120;52.890;6.040;2022-07-23T04:55:09;14.27;;;9.33;;
14088;SDS011;7120;52.890;6.040;2022-07-23T04:57:35;15.20;;;9.17;;
14088;SDS011;7120;52.890;6.040;2022-07-23T05:00:00;16.00;;;9.03;;
14088;SDS011;7120;52.890;6.040;2022-07-23T05:02:26;11.53;;;8.33;;
14088;SDS011;7120;52.890;6.040;2022-07-23T05:04:51;12.87;;;8.37;;
14088;SDS011;7120;52.890;6.040;2022-07-23T05:07:16;16.73;;;9.47;;
14088;SDS011;7120;52.890;6.040;2022-07-23T05:09:42;14.43;;;8.60;;
14088;SDS011;7120;52.890;6.040;2022-07-23T05:12:08;10.50;;;7.87;;
14088;SDS011;7120;52.890;6.040;2022-07-23T05:14:33;10.93;;;7.57;;
14088;SDS011;7120;52.890;6.040;2022-07-23T05:16:58;8.73;;;7.40;;
14088;SDS011;7120;52.890;6.040;2022-07-23T05:19:24;8.10;;;6.70;;
14088;SDS011;7120;52.890;6.040;2022-07-23T05:21:49;7.73;;;6.37;;
14088;SDS011;7120;52.890;6.040;2022-07-23T05:24:15;7.43;;;6.20;;
14088;SDS011;7120;52.890;6.040;2022-07-23T05:26:41;7.07;;;6.10;;
14088;SDS011;7120;52.890;6.040;2022-07-23T05:29:06;6.33;;;5.70;;
14088;SDS011;7120;52.890;6.040;2022-07-23T05:31:31;6.37;;;5.77;;
14088;SDS011;7120;52.890;6.040;2022-07-23T05:33:57;7.17;;;6.33;;
14088;SDS011;7120;52.890;6.040;2022-07-23T05:36:22;7.30;;;6.60;;
14088;SDS011;7120;52.890;6.040;2022-07-23T05:38:48;7.50;;;6.40;;
14088;SDS011;7120;52.890;6.040;2022-07-23T05:41:13;8.77;;;6.50;;
14088;SDS011;7120;52.890;6.040;2022-07-23T05:43:38;8.67;;;6.10;;
14088;SDS011;7120;52.890;6.040;2022-07-23T05:46:04;9.37;;;6.50;;
14088;SDS011;7120;52.890;6.040;2022-07-23T05:48:29;7.00;;;6.10;;
14088;SDS011;7120;52.890;6.040;2022-07-23T05:50:54;8.67;;;5.93;;
14088;SDS011;7120;52.890;6.040;2022-07-23T05:53:20;7.90;;;6.17;;
14088;SDS011;7120;52.890;6.040;2022-07-23T05:55:45;6.50;;;5.90;;
14088;SDS011;7120;52.890;6.040;2022-07-23T05:58:10;7.20;;;6.50;;
14088;SDS011;7120;52.890;6.040;2022-07-23T06:00:36;6.63;;;5.60;;
14088;SDS011;7120;52.890;6.040;2022-07-23T06:03:01;6.80;;;6.13;;
14088;SDS011;7120;52.890;6.040;2022-07-23T06:05:27;6.40;;;5.80;;
14088;SDS011;7120;52.890;6.040;2022-07-23T06:07:52;6.60;;;5.53;;
14088;SDS011;7120;52.890;6.040;2022-07-23T06:10:19;6.63;;;5.80;;
14088;SDS011;7120;52.890;6.040;2022-07-23T06:12:44;6.80;;;5.60;;
14088;SDS011;7120;52.890;6.040;2022-07-23T06:15:10;8.07;;;5.33;;
14088;SDS011;7120;52.890;6.040;2022-07-23T06:17:36;6.50;;;5.87;;
14088;SDS011;7120;52.890;6.040;2022-07-23T06:20:04;6.17;;;5.63;;
14088;SDS011;7120;52.890;6.040;2022-07-23T06:22:31;6.27;;;5.60;;
14088;SDS011;7120;52.890;6.040;2022-07-23T06:24:56;5.97;;;5.20;;
14088;SDS011;7120;52.890;6.040;2022-07-23T06:27:21;5.73;;;4.60;;
14088;SDS011;7120;52.890;6.040;2022-07-23T06:29:47;5.37;;;4.90;;
14088;SDS011;7120;52.890;6.040;2022-07-23T06:32:12;5.33;;;3.93;;
14088;SDS011;7120;52.890;6.040;2022-07-23T06:34:38;4.83;;;4.40;;
14088;SDS011;7120;52.890;6.040;2022-07-23T06:37:03;6.13;;;4.70;;
14088;SDS011;7120;52.890;6.040;2022-07-23T06:39:28;3.97;;;3.10;;
14088;SDS011;7120;52.890;6.040;2022-07-23T06:41:54;3.20;;;2.30;;
14088;SDS011;7120;52.890;6.040;2022-07-23T06:44:19;4.17;;;3.13;;
14088;SDS011;7120;52.890;6.040;2022-07-23T06:46:45;2.30;;;1.97;;
14088;SDS011;7120;52.890;6.040;2022-07-23T06:49:10;3.47;;;2.10;;
14088;SDS011;7120;52.890;6.040;2022-07-23T06:51:35;2.30;;;2.10;;
14088;SDS011;7120;52.890;6.040;2022-07-23T06:54:01;4.70;;;2.23;;
14088;SDS011;7120;52.890;6.040;2022-07-23T06:56:27;2.27;;;1.60;;
14088;SDS011;7120;52.890;6.040;2022-07-23T06:58:53;2.03;;;1.50;;
14088;SDS011;7120;52.890;6.040;2022-07-23T07:01:18;3.27;;;1.90;;
14088;SDS011;7120;52.890;6.040;2022-07-23T07:03:43;2.07;;;1.87;;
14088;SDS011;7120;52.890;6.040;2022-07-23T07:06:09;4.37;;;1.80;;
14088;SDS011;7120;52.890;6.040;2022-07-23T07:08:34;1.73;;;1.43;;
14088;SDS011;7120;52.890;6.040;2022-07-23T07:11:00;2.13;;;1.30;;
14088;SDS011;7120;52.890;6.040;2022-07-23T07:13:25;2.80;;;1.60;;
14088;SDS011;7120;52.890;6.040;2022-07-23T07:15:50;1.93;;;1.03;;
14088;SDS011;7120;52.890;6.040;2022-07-23T07:18:16;1.20;;;0.97;;
14088;SDS011;7120;52.890;6.040;2022-07-23T07:20:41;0.93;;;0.80;;
14088;SDS011;7120;52.890;6.040;2022-07-23T07:23:06;1.00;;;0.90;;
14088;SDS011;7120;52.890;6.040;2022-07-23T07:25:32;3.43;;;1.03;;
14088;SDS011;7120;52.890;6.040;2022-07-23T07:27:57;2.87;;;0.90;;
14088;SDS011;7120;52.890;6.040;2022-07-23T07:30:23;1.73;;;0.90;;
14088;SDS011;7120;52.890;6.040;2022-07-23T07:32:48;0.67;;;0.67;;
14088;SDS011;7120;52.890;6.040;2022-07-23T07:35:13;1.30;;;0.90;;
14088;SDS011;7120;52.890;6.040;2022-07-23T07:37:39;1.10;;;1.00;;
14088;SDS011;7120;52.890;6.040;2022-07-23T07:40:04;1.03;;;0.97;;
14088;SDS011;7120;52.890;6.040;2022-07-23T07:42:30;1.50;;;1.00;;
14088;SDS011;7120;52.890;6.040;2022-07-23T07:44:57;0.80;;;0.80;;
14088;SDS011;7120;52.890;6.040;2022-07-23T07:47:22;1.17;;;1.00;;
14088;SDS011;7120;52.890;6.040;2022-07-23T07:49:48;1.47;;;0.90;;
14088;SDS011;7120;52.890;6.040;2022-07-23T07:52:13;1.03;;;0.70;;
14088;SDS011;7120;52.890;6.040;2022-07-23T07:54:38;0.70;;;0.60;;
14088;SDS011;7120;52.890;6.040;2022-07-23T07:57:04;0.90;;;0.70;;
14088;SDS011;7120;52.890;6.040;2022-07-23T07:59:29;1.50;;;1.00;;
14088;SDS011;7120;52.890;6.040;2022-07-23T08:01:54;1.03;;;0.80;;
14088;SDS011;7120;52.890;6.040;2022-07-23T08:04:20;0.83;;;0.80;;
14088;SDS011;7120;52.890;6.040;2022-07-23T08:06:45;1.10;;;1.00;;
14088;SDS011;7120;52.890;6.040;2022-07-23T08:09:10;2.27;;;1.00;;
14088;SDS011;7120;52.890;6.040;2022-07-23T08:11:36;1.13;;;0.90;;
14088;SDS011;7120;52.890;6.040;2022-07-23T08:14:01;3.03;;;1.57;;
14088;SDS011;7120;52.890;6.040;2022-07-23T08:16:27;1.80;;;1.00;;
14088;SDS011;7120;52.890;6.040;2022-07-23T08:18:52;1.53;;;0.90;;
14088;SDS011;7120;52.890;6.040;2022-07-23T08:21:18;0.73;;;0.70;;
14088;SDS011;7120;52.890;6.040;2022-07-23T08:23:43;0.83;;;0.70;;
14088;SDS011;7120;52.890;6.040;2022-07-23T08:26:09;1.03;;;0.70;;
14088;SDS011;7120;52.890;6.040;2022-07-23T08:28:34;0.70;;;0.70;;
14088;SDS011;7120;52.890;6.040;2022-07-23T08:31:00;1.17;;;0.83;;
14088;SDS011;7120;52.890;6.040;2022-07-23T08:33:26;1.03;;;0.77;;
14088;SDS011;7120;52.890;6.040;2022-07-23T08:35:51;1.07;;;0.87;;
14088;SDS011;7120;52.890;6.040;2022-07-23T08:38:19;0.97;;;0.80;;
14088;SDS011;7120;52.890;6.040;2022-07-23T08:40:50;1.67;;;0.80;;
14088;SDS011;7120;52.890;6.040;2022-07-23T08:43:18;1.37;;;0.70;;
14088;SDS011;7120;52.890;6.040;2022-07-23T08:45:46;1.30;;;0.80;;
14088;SDS011;7120;52.890;6.040;2022-07-23T08:48:17;2.97;;;0.80;;
14088;SDS011;7120;52.890;6.040;2022-07-23T08:50:45;1.77;;;0.80;;
14088;SDS011;7120;52.890;6.040;2022-07-23T08:53:13;1.07;;;0.70;;
14088;SDS011;7120;52.890;6.040;2022-07-23T08:55:42;1.30;;;0.90;;
14088;SDS011;7120;52.890;6.040;2022-07-23T08:58:10;1.00;;;0.85;;
14088;SDS011;7120;52.890;6.040;2022-07-23T09:00:36;1.20;;;1.00;;
14088;SDS011;7120;52.890;6.040;2022-07-23T09:03:02;1.80;;;1.10;;
14088;SDS011;7120;52.890;6.040;2022-07-23T09:05:27;2.30;;;0.80;;
14088;SDS011;7120;52.890;6.040;2022-07-23T09:08:09;1.20;;;0.90;;
14088;SDS011;7120;52.890;6.040;2022-07-23T09:10:44;3.60;;;0.90;;
14088;SDS011;7120;52.890;6.040;2022-07-23T09:13:22;1.07;;;0.97;;
14088;SDS011;7120;52.890;6.040;2022-07-23T09:15:49;2.37;;;1.00;;
14088;SDS011;7120;52.890;6.040;2022-07-23T09:18:15;1.33;;;0.97;;
14088;SDS011;7120;52.890;6.040;2022-07-23T09:20:41;3.47;;;1.10;;
14088;SDS011;7120;52.890;6.040;2022-07-23T09:23:06;2.50;;;1.10;;
14088;SDS011;7120;52.890;6.040;2022-07-23T09:25:32;2.53;;;1.10;;
14088;SDS011;7120;52.890;6.040;2022-07-23T09:27:58;1.47;;;1.00;;
14088;SDS011;7120;52.890;6.040;2022-07-23T09:30:28;1.60;;;1.13;;
14088;SDS011;7120;52.890;6.040;2022-07-23T09:33:06;0.98;;;0.98;;
14088;SDS011;7120;52.890;6.040;2022-07-23T09:35:44;1.10;;;1.00;;
14088;SDS011;7120;52.890;6.040;2022-07-23T09:38:11;1.30;;;0.98;;
14088;SDS011;7120;52.890;6.040;2022-07-23T09:40:37;1.73;;;1.20;;
14088;SDS011;7120;52.890;6.040;2022-07-23T09:43:03;1.77;;;1.15;;
14088;SDS011;7120;52.890;6.040;2022-07-23T09:45:29;1.23;;;1.13;;
14088;SDS011;7120;52.890;6.040;2022-07-23T09:48:10;3.40;;;1.10;;
14088;SDS011;7120;52.890;6.040;2022-07-23T09:50:43;1.23;;;1.10;;
14088;SDS011;7120;52.890;6.040;2022-07-23T09:53:09;2.07;;;1.57;;
14088;SDS011;7120;52.890;6.040;2022-07-23T09:55:48;3.27;;;1.20;;
14088;SDS011;7120;52.890;6.040;2022-07-23T09:58:15;2.40;;;1.50;;
14088;SDS011;7120;52.890;6.040;2022-07-23T10:00:42;1.20;;;1.10;;
14088;SDS011;7120;52.890;6.040;2022-07-23T10:03:11;1.57;;;1.43;;
14088;SDS011;7120;52.890;6.040;2022-07-23T10:05:38;2.23;;;1.30;;
14088;SDS011;7120;52.890;6.040;2022-07-23T10:08:05;5.83;;;2.00;;
14088;SDS011;7120;52.890;6.040;2022-07-23T10:10:35;4.20;;;1.93;;
14088;SDS011;7120;52.890;6.040;2022-07-23T10:13:02;1.53;;;1.27;;
14088;SDS011;7120;52.890;6.040;2022-07-23T10:15:47;1.50;;;1.20;;
14088;SDS011;7120;52.890;6.040;2022-07-23T10:18:13;2.57;;;1.63;;
14088;SDS011;7120;52.890;6.040;2022-07-23T10:20:39;1.30;;;1.10;;
14088;SDS011;7120;52.890;6.040;2022-07-23T10:28:45;2.40;;;1.50;;
14088;SDS011;7120;52.890;6.040;2022-07-23T10:31:35;1.73;;;1.07;;
14088;SDS011;7120;52.890;6.040;2022-07-23T10:37:14;4.10;;;1.70;;
14088;SDS011;7120;52.890;6.040;2022-07-23T10:42:43;2.10;;;1.30;;
14088;SDS011;7120;52.890;6.040;2022-07-23T10:47:50;1.30;;;1.13;;
14088;SDS011;7120;52.890;6.040;2022-07-23T10:57:56;2.17;;;1.30;;
14088;SDS011;7120;52.890;6.040;2022-07-23T11:00:23;2.25;;;1.70;;
14088;SDS011;7120;52.890;6.040;2022-07-23T11:02:50;3.50;;;1.70;;
14088;SDS011;7120;52.890;6.040;2022-07-23T11:05:18;2.22;;;1.42;;
14088;SDS011;7120;52.890;6.040;2022-07-23T11:10:35;1.60;;;1.50;;
14088;SDS011;7120;52.890;6.040;2022-07-23T11:24:05;2.40;;;1.48;;
14088;SDS011;7120;52.890;6.040;2022-07-23T11:37:07;1.60;;;1.50;;
14088;SDS011;7120;52.890;6.040;2022-07-23T11:39:34;1.65;;;1.42;;
14088;SDS011;7120;52.890;6.040;2022-07-23T11:42:01;1.83;;;1.55;;
14088;SDS011;7120;52.890;6.040;2022-07-23T11:44:37;3.25;;;1.58;;
14088;SDS011;7120;52.890;6.040;2022-07-23T11:49:33;1.80;;;1.30;;
14088;SDS011;7120;52.890;6.040;2022-07-23T11:52:17;2.15;;;1.95;;
14088;SDS011;7120;52.890;6.040;2022-07-23T11:54:59;2.08;;;1.77;;
14088;SDS011;7120;52.890;6.040;2022-07-23T11:57:32;2.15;;;1.50;;
14088;SDS011;7120;52.890;6.040;2022-07-23T12:00:15;2.33;;;1.48;;
14088;SDS011;7120;52.890;6.040;2022-07-23T12:02:43;1.73;;;1.63;;
14088;SDS011;7120;52.890;6.040;2022-07-23T12:05:11;1.50;;;1.40;;
14088;SDS011;7120;52.890;6.040;2022-07-23T12:07:45;1.60;;;1.40;;
14088;SDS011;7120;52.890;6.040;2022-07-23T12:12:42;2.72;;;1.67;;
14088;SDS011;7120;52.890;6.040;2022-07-23T12:15:12;3.45;;;1.88;;
14088;SDS011;7120;52.890;6.040;2022-07-23T12:17:40;1.80;;;1.70;;
14088;SDS011;7120;52.890;6.040;2022-07-23T12:20:07;2.40;;;2.05;;
14088;SDS011;7120;52.890;6.040;2022-07-23T12:22:38;1.88;;;1.75;;
14088;SDS011;7120;52.890;6.040;2022-07-23T12:25:07;2.20;;;2.00;;
14088;SDS011;7120;52.890;6.040;2022-07-23T12:27:35;2.70;;;2.25;;
14088;SDS011;7120;52.890;6.040;2022-07-23T12:30:46;1.75;;;1.65;;
14088;SDS011;7120;52.890;6.040;2022-07-23T12:32:54;1.77;;;1.52;;
14088;SDS011;7120;52.890;6.040;2022-07-23T12:35:22;2.47;;;2.10;;
14088;SDS011;7120;52.890;6.040;2022-07-23T12:37:58;3.78;;;2.17;;
14088;SDS011;7120;52.890;6.040;2022-07-23T12:40:31;2.35;;;2.03;;
14088;SDS011;7120;52.890;6.040;2022-07-23T12:43:00;2.80;;;2.00;;
14088;SDS011;7120;52.890;6.040;2022-07-23T12:45:41;1.80;;;1.70;;
14088;SDS011;7120;52.890;6.040;2022-07-23T12:48:19;1.73;;;1.63;;
14088;SDS011;7120;52.890;6.040;2022-07-23T12:53:14;2.00;;;1.90;;
14088;SDS011;7120;52.890;6.040;2022-07-23T12:55:41;2.00;;;1.90;;
14088;SDS011;7120;52.890;6.040;2022-07-23T13:03:24;1.95;;;1.83;;
14088;SDS011;7120;52.890;6.040;2022-07-23T13:05:56;2.40;;;1.90;;
14088;SDS011;7120;52.890;6.040;2022-07-23T13:08:22;3.10;;;1.75;;
14088;SDS011;7120;52.890;6.040;2022-07-23T13:10:48;2.55;;;1.80;;
14088;SDS011;7120;52.890;6.040;2022-07-23T13:13:16;1.60;;;1.50;;
14088;SDS011;7120;52.890;6.040;2022-07-23T13:15:44;4.75;;;2.08;;
14088;SDS011;7120;52.890;6.040;2022-07-23T13:18:10;3.25;;;2.45;;
14088;SDS011;7120;52.890;6.040;2022-07-23T13:20:35;2.30;;;2.10;;
14088;SDS011;7120;52.890;6.040;2022-07-23T13:23:01;2.30;;;2.10;;
14088;SDS011;7120;52.890;6.040;2022-07-23T13:25:27;2.35;;;2.15;;
14088;SDS011;7120;52.890;6.040;2022-07-23T13:27:52;5.10;;;4.68;;
14088;SDS011;7120;52.890;6.040;2022-07-23T13:30:17;2.30;;;2.10;;
14088;SDS011;7120;52.890;6.040;2022-07-23T13:32:44;2.40;;;2.20;;
14088;SDS011;7120;52.890;6.040;2022-07-23T13:35:09;2.05;;;1.85;;
14088;SDS011;7120;52.890;6.040;2022-07-23T13:37:35;2.25;;;2.13;;
14088;SDS011;7120;52.890;6.040;2022-07-23T13:40:00;2.53;;;2.20;;
14088;SDS011;7120;52.890;6.040;2022-07-23T13:42:27;3.42;;;1.80;;
14088;SDS011;7120;52.890;6.040;2022-07-23T13:44:52;2.53;;;2.33;;
14088;SDS011;7120;52.890;6.040;2022-07-23T13:47:18;3.33;;;2.03;;
14088;SDS011;7120;52.890;6.040;2022-07-23T13:49:43;2.97;;;2.00;;
14088;SDS011;7120;52.890;6.040;2022-07-23T13:52:08;2.60;;;2.13;;
14088;SDS011;7120;52.890;6.040;2022-07-23T13:54:34;2.20;;;1.90;;
14088;SDS011;7120;52.890;6.040;2022-07-23T13:56:59;2.58;;;2.17;;
14088;SDS011;7120;52.890;6.040;2022-07-23T13:59:25;1.75;;;1.65;;
14088;SDS011;7120;52.890;6.040;2022-07-23T14:01:50;1.80;;;1.70;;
14088;SDS011;7120;52.890;6.040;2022-07-23T14:04:15;1.83;;;1.73;;
14088;SDS011;7120;52.890;6.040;2022-07-23T14:06:41;2.35;;;2.03;;
14088;SDS011;7120;52.890;6.040;2022-07-23T14:09:06;3.92;;;2.50;;
14088;SDS011;7120;52.890;6.040;2022-07-23T14:11:31;2.40;;;2.20;;
14088;SDS011;7120;52.890;6.040;2022-07-23T14:13:58;2.78;;;2.58;;
14088;SDS011;7120;52.890;6.040;2022-07-23T14:16:25;2.22;;;1.80;;
14088;SDS011;7120;52.890;6.040;2022-07-23T14:18:52;1.88;;;1.77;;
14088;SDS011;7120;52.890;6.040;2022-07-23T14:21:18;2.20;;;2.00;;
14088;SDS011;7120;52.890;6.040;2022-07-23T14:23:43;2.03;;;1.65;;
14088;SDS011;7120;52.890;6.040;2022-07-23T14:26:09;1.90;;;1.70;;
14088;SDS011;7120;52.890;6.040;2022-07-23T14:28:34;2.28;;;1.73;;
14088;SDS011;7120;52.890;6.040;2022-07-23T14:30:59;2.08;;;1.83;;
14088;SDS011;7120;52.890;6.040;2022-07-23T14:33:25;2.13;;;1.95;;
14088;SDS011;7120;52.890;6.040;2022-07-23T14:35:51;2.45;;;2.10;;
14088;SDS011;7120;52.890;6.040;2022-07-23T14:38:16;2.70;;;1.90;;
14088;SDS011;7120;52.890;6.040;2022-07-23T14:40:41;2.58;;;1.80;;
14088;SDS011;7120;52.890;6.040;2022-07-23T14:43:07;2.00;;;1.80;;
14088;SDS011;7120;52.890;6.040;2022-07-23T14:45:33;1.80;;;1.70;;
14088;SDS011;7120;52.890;6.040;2022-07-23T14:47:58;2.00;;;1.70;;
14088;SDS011;7120;52.890;6.040;2022-07-23T14:50:24;3.45;;;2.20;;
14088;SDS011;7120;52.890;6.040;2022-07-23T14:52:49;2.17;;;1.80;;
14088;SDS011;7120;52.890;6.040;2022-07-23T14:55:15;2.28;;;1.60;;
14088;SDS011;7120;52.890;6.040;2022-07-23T14:57:43;1.92;;;1.70;;
14088;SDS011;7120;52.890;6.040;2022-07-23T15:00:08;1.90;;;1.60;;
14088;SDS011;7120;52.890;6.040;2022-07-23T15:02:34;1.70;;;1.60;;
14088;SDS011;7120;52.890;6.040;2022-07-23T15:05:00;2.22;;;1.90;;
14088;SDS011;7120;52.890;6.040;2022-07-23T15:07:26;2.30;;;1.90;;
14088;SDS011;7120;52.890;6.040;2022-07-23T15:09:52;3.80;;;2.40;;
14088;SDS011;7120;52.890;6.040;2022-07-23T15:12:18;2.30;;;2.00;;
14088;SDS011;7120;52.890;6.040;2022-07-23T15:14:43;3.75;;;2.00;;
14088;SDS011;7120;52.890;6.040;2022-07-23T15:17:09;2.83;;;1.95;;
14088;SDS011;7120;52.890;6.040;2022-07-23T15:19:35;2.40;;;1.50;;
14088;SDS011;7120;52.890;6.040;2022-07-23T15:22:01;1.88;;;1.65;;
14088;SDS011;7120;52.890;6.040;2022-07-23T15:24:26;2.88;;;1.70;;
14088;SDS011;7120;52.890;6.040;2022-07-23T15:26:52;2.10;;;1.73;;
14088;SDS011;7120;52.890;6.040;2022-07-23T15:29:17;2.22;;;1.45;;
14088;SDS011;7120;52.890;6.040;2022-07-23T15:31:42;2.58;;;1.60;;
14088;SDS011;7120;52.890;6.040;2022-07-23T15:34:07;2.92;;;2.22;;
14088;SDS011;7120;52.890;6.040;2022-07-23T15:36:33;3.30;;;1.75;;
14088;SDS011;7120;52.890;6.040;2022-07-23T15:38:58;2.47;;;2.28;;
14088;SDS011;7120;52.890;6.040;2022-07-23T15:41:24;4.00;;;2.20;;
14088;SDS011;7120;52.890;6.040;2022-07-23T15:43:49;2.30;;;1.98;;
14088;SDS011;7120;52.890;6.040;2022-07-23T15:46:16;2.03;;;1.55;;
14088;SDS011;7120;52.890;6.040;2022-07-23T15:48:43;2.67;;;2.07;;